Flight Track Log - Related Links

Times and Time Zones

All times are in EDT time to prevent confusion due to time zone crossing. See the UAL1058 flight status page for this flight to view local times or setup timezone preferences in your user account.

Time Position Orientation Groundspeed Altitude Reporting Facility
EDT Latitude Longitude Course Direction KTS MPH feet Rate Location/Type
Fri 07:14:15 PM 38.9500 -77.5333 256° West 189 217 1,800  Level Potomac TRACON
Fri 07:15:15 PM 38.9333 -77.6167 256° West 235 270 4,400 2,370 Climbing Potomac TRACON
Fri 07:16:14 PM 38.9078 -77.6858 245° Southwest 246 283 6,500 2,500 Climbing Washington Center
Fri 07:17:15 PM 38.8581 -77.7775 235° Southwest 280 322 9,400 2,182 Climbing Washington Center
Fri 07:18:15 PM 38.8042 -77.8747 235° Southwest 312 359 10,900 1,831 Climbing Washington Center
Fri 07:19:13 PM 38.8017 -77.9997 269° West 336 387 13,000 2,288 Climbing Washington Center
Fri 07:20:13 PM 38.8344 -78.1314 288° West 347 399 15,400 2,678 Climbing Washington Center
Fri 07:21:14 PM 38.8525 -78.2653 280° West 370 426 18,400 2,508 Climbing Washington Center
Fri 07:22:15 PM 38.8514 -78.4011 269° West 383 441 20,500 1,983 Climbing Washington Center
Fri 07:23:15 PM 38.8500 -78.5425 269° West 388 447 22,400 1,700 Climbing Washington Center
Fri 07:24:15 PM 38.8486 -78.6864 269° West 393 452 23,900 1,281 Climbing Washington Center
Fri 07:26:13 PM 38.8431 -78.9714 269° West 419 482 26,200 1,274 Climbing Washington Center
Fri 07:27:14 PM 38.8406 -79.1258 269° West 429 494 27,700 1,033 Climbing Washington Center
Fri 07:28:15 PM 38.8400 -79.2856 270° West 442 509 28,300 550 Climbing Washington Center
Fri 07:29:14 PM 38.8369 -79.4508 269° West 452 520 28,800 1,000 Climbing Washington Center
Fri 07:30:15 PM 38.8353 -79.6267 269° West 476 548 30,300 1,664 Climbing Washington Center
Fri 07:31:13 PM 38.8292 -79.8047 268° West 477 549 32,100 1,664 Climbing Washington Center
Fri 07:32:14 PM 38.8256 -79.9644 268° West 463 533 33,600 1,219 Climbing Washington Center
Fri 07:33:21 PM 38.8206 -80.1075 267° West 439 505 34,700 1,116 Climbing Indianapolis Center
Fri 07:34:23 PM 38.8156 -80.2914 268° West 432 497 36,000 634 Climbing Indianapolis Center
Fri 07:35:24 PM 38.8100 -80.4433 267° West 428 493 36,000  Level Indianapolis Center
Fri 07:36:26 PM 38.8067 -80.5942 268° West 425 489 36,000  Level Indianapolis Center
Fri 07:37:27 PM 38.8025 -80.7444 268° West 424 488 36,000  Level Indianapolis Center
Fri 07:38:29 PM 38.7975 -80.8914 268° West 416 479 36,000  Level Indianapolis Center
Fri 07:39:31 PM 38.7925 -81.0364 268° West 411 473 36,000  Level Indianapolis Center
Fri 07:40:32 PM 38.7875 -81.1806 267° West 407 468 36,000  Level Indianapolis Center
Fri 07:41:34 PM 38.7831 -81.3250 268° West 407 468 36,000  Level Indianapolis Center
Fri 07:42:35 PM 38.7758 -81.4917 267° West 407 468 36,000  Level Indianapolis Center
Fri 07:43:37 PM 38.7706 -81.6378 267° West 411 473 36,000  Level Indianapolis Center
Fri 07:44:39 PM 38.7656 -81.7842 268° West 415 478 36,000 -537 Level Indianapolis Center
Fri 07:45:40 PM 38.7586 -81.9286 267° West 410 472 34,900 -1,415 Descending Indianapolis Center
Fri 07:46:42 PM 38.7519 -82.0761 267° West 416 479 33,100 -1,902 Descending Indianapolis Center
Fri 07:47:43 PM 38.7461 -82.2531 268° West 417 480 31,000 -1,512 Descending Indianapolis Center
Fri 07:48:45 PM 38.7400 -82.4028 267° West 420 483 30,000 -484 Descending Indianapolis Center
Fri 07:49:47 PM 38.7342 -82.5536 267° West 424 488 30,000  Level Indianapolis Center
Fri 07:50:48 PM 38.7278 -82.7014 267° West 419 482 30,000  Level Indianapolis Center
Fri 07:51:50 PM 38.6961 -82.8428 254° West 416 479 30,000  Level Indianapolis Center
Fri 07:52:51 PM 38.6589 -82.9831 251° West 417 480 30,000 -98 Level Indianapolis Center
Fri 07:53:53 PM 38.6175 -83.1442 252° West 413 475 29,800 -581 Descending Indianapolis Center
Fri 07:54:55 PM 38.5808 -83.2833 251° West 413 475 28,800 -878 Descending Indianapolis Center
Fri 07:55:56 PM 38.5461 -83.4239 253° West 415 478 28,000 -390 Descending Indianapolis Center
Fri 07:56:58 PM 38.5094 -83.5658 252° West 419 482 28,000  Level Indianapolis Center
Fri 07:57:59 PM 38.4767 -83.7078 254° West 419 482 28,000  Level Indianapolis Center
Fri 07:59:01 PM 38.4433 -83.8494 253° West 416 479 28,000  Level Indianapolis Center
Fri 08:00:03 PM 38.3942 -84.0106 249° West 419 482 28,000  Level Indianapolis Center
Fri 08:01:04 PM 38.3519 -84.1464 248° West 415 478 28,000  Level Indianapolis Center
Fri 08:02:06 PM 38.3097 -84.2808 248° West 409 471 28,000  Level Indianapolis Center
Fri 08:03:07 PM 38.2672 -84.4131 248° West 405 466 28,000  Level Indianapolis Center
Fri 08:04:09 PM 38.2208 -84.5419 245° Southwest 404 465 28,000  Level Indianapolis Center
Fri 08:05:10 PM 38.1767 -84.6717 247° West 400 460 28,000  Level Indianapolis Center
Fri 08:06:12 PM 38.1319 -84.8014 246° West 400 460 28,000  Level Indianapolis Center
Fri 08:07:13 PM 38.0814 -84.9503 247° West 397 457 28,000  Level Indianapolis Center
Fri 08:08:15 PM 38.0378 -85.0772 246° West 393 452 28,000  Level Indianapolis Center
Fri 08:09:17 PM 37.9961 -85.2089 248° West 392 451 28,000  Level Indianapolis Center
Fri 08:10:18 PM 37.9731 -85.3422 258° West 393 452 28,000  Level Indianapolis Center
Fri 08:11:20 PM 37.9772 -85.4797 272° West 398 458 28,000  Level Indianapolis Center
Fri 08:12:21 PM 37.9967 -85.6164 280° West 394 453 28,000  Level Indianapolis Center
Fri 08:13:23 PM 38.0172 -85.7522 281° West 392 451 28,000  Level Indianapolis Center
Fri 08:14:25 PM 38.0353 -85.8906 279° West 396 456 28,000  Level Indianapolis Center
Fri 08:15:26 PM 38.0533 -86.0269 280° West 393 452 28,000  Level Indianapolis Center
Fri 08:16:28 PM 38.0728 -86.1639 280° West 392 451 28,000  Level Indianapolis Center
Fri 08:17:30 PM 38.0903 -86.3000 279° West 391 450 28,000  Level Indianapolis Center
Fri 08:18:31 PM 38.1150 -86.4622 281° West 390 449 28,000  Level Indianapolis Center
Fri 08:19:33 PM 38.1347 -86.5972 281° West 387 445 28,000  Level Indianapolis Center
Fri 08:20:35 PM 38.1567 -86.7344 282° West 392 451 28,000  Level Indianapolis Center
Fri 08:21:36 PM 38.1783 -86.8714 281° West 393 452 28,000  Level Indianapolis Center
Fri 08:22:38 PM 38.1994 -87.0086 281° West 390 449 28,000  Level Indianapolis Center
Fri 08:23:40 PM 38.2217 -87.1506 281° West 395 455 28,000 341 Level Indianapolis Center
Fri 08:24:41 PM 38.2450 -87.2897 282° West 394 453 28,700 1,024 Climbing Indianapolis Center
Fri 08:25:43 PM 38.2681 -87.4272 282° West 394 453 30,100 1,306 Climbing Indianapolis Center
Fri 08:26:45 PM 38.2919 -87.5611 283° West 390 449 31,400 1,073 Climbing Indianapolis Center
Fri 08:27:46 PM 38.3197 -87.6967 285° West 391 450 32,300 976 Climbing Indianapolis Center
Fri 08:28:48 PM 38.3481 -87.8336 285° West 398 458 33,400 1,171 Climbing Indianapolis Center
Fri 08:29:49 PM 38.3761 -87.9694 285° West 396 456 34,700 1,024 Climbing Indianapolis Center
Fri 08:30:51 PM 38.4033 -88.1019 285° West 388 447 35,500 796 Climbing Indianapolis Center
Fri 08:31:27 PM 38.4197 -88.1831 284° West 390 449 36,000 309 Climbing Kansas City Center
Fri 08:32:28 PM 38.4472 -88.3183 285° West 392 451 36,000  Level Kansas City Center
Fri 08:33:31 PM 38.4792 -88.4806 284° West 392 451 36,000  Level Kansas City Center
Fri 08:34:31 PM 38.5067 -88.6147 285° West 390 449 36,000  Level Kansas City Center
Fri 08:35:35 PM 38.5342 -88.7536 284° West 391 450 36,000  Level Kansas City Center
Fri 08:36:37 PM 38.5603 -88.8867 284° West 388 447 36,000  Level Kansas City Center
Fri 08:37:38 PM 38.5892 -89.0297 285° West 387 445 36,000  Level Kansas City Center
Fri 08:38:39 PM 38.6144 -89.1614 284° West 384 442 36,000  Level Kansas City Center
Fri 08:39:39 PM 38.6403 -89.2922 284° West 381 438 36,000  Level Kansas City Center
Fri 08:40:41 PM 38.6675 -89.4331 284° West 380 437 36,000  Level Kansas City Center
Fri 08:41:45 PM 38.6925 -89.5636 284° West 380 437 36,000  Level Kansas City Center
Fri 08:42:45 PM 38.7158 -89.6844 284° West 381 438 36,000  Level Kansas City Center
Fri 08:43:46 PM 38.7386 -89.8156 283° West 381 438 36,000  Level Kansas City Center
Fri 08:44:48 PM 38.7686 -89.9756 284° West 385 443 36,000  Level Kansas City Center
Fri 08:45:51 PM 38.7936 -90.1075 284° West 386 444 36,000  Level Kansas City Center
Fri 08:46:52 PM 38.8156 -90.2419 282° West 387 445 36,000  Level Kansas City Center
Fri 08:47:56 PM 38.8453 -90.3800 285° West 391 450 36,000  Level Kansas City Center
Fri 08:48:56 PM 38.8686 -90.5156 283° West 392 451 36,000  Level Kansas City Center
Fri 08:49:57 PM 38.8811 -90.6467 277° West 376 433 36,000  Level Kansas City Center
Fri 08:50:58 PM 38.8986 -90.7969 279° West 377 434 36,000  Level Kansas City Center
Fri 08:52:01 PM 38.9142 -90.9294 279° West 378 435 36,000  Level Kansas City Center
Fri 08:53:04 PM 38.9289 -91.0617 278° West 377 434 36,000  Level Kansas City Center
Fri 08:54:05 PM 38.9439 -91.1922 278° West 374 430 36,000  Level Kansas City Center
Fri 08:55:06 PM 38.9589 -91.3242 278° West 374 430 36,000  Level Kansas City Center
Fri 08:56:08 PM 38.9725 -91.4553 278° West 372 428 36,000  Level Kansas City Center
Fri 08:57:10 PM 38.9903 -91.6119 278° West 372 428 36,000  Level Kansas City Center
Fri 08:58:12 PM 39.0025 -91.7294 278° West 371 427 36,000  Level Kansas City Center
Fri 08:59:12 PM 39.0194 -91.8861 278° West 370 426 36,000  Level Kansas City Center
Fri 09:00:13 PM 39.0328 -92.0175 277° West 370 426 36,000  Level Kansas City Center
Fri 09:01:14 PM 39.0456 -92.1456 277° West 365 420 36,000  Level Kansas City Center
Fri 09:02:17 PM 39.0594 -92.2744 278° West 365 420 36,000  Level Kansas City Center
Fri 09:03:19 PM 39.0725 -92.4031 277° West 364 419 36,000  Level Kansas City Center
Fri 09:04:21 PM 39.0850 -92.5319 277° West 363 418 36,000  Level Kansas City Center
Fri 09:05:22 PM 39.0978 -92.6597 277° West 362 417 36,000  Level Kansas City Center
Fri 09:06:22 PM 39.1108 -92.7944 277° West 365 420 36,000  Level Kansas City Center
Fri 09:07:24 PM 39.1239 -92.9250 277° West 367 422 36,000  Level Kansas City Center
Fri 09:08:28 PM 39.1367 -93.0569 277° West 371 427 36,000  Level Kansas City Center
Fri 09:09:29 PM 39.1514 -93.2119 277° West 368 423 36,000  Level Kansas City Center
Fri 09:10:31 PM 39.1633 -93.3436 277° West 370 426 36,000  Level Kansas City Center
Fri 09:11:30 PM 39.1753 -93.4722 277° West 371 427 36,000  Level Kansas City Center
Fri 09:12:32 PM 39.1806 -93.5958 273° West 362 417 36,000  Level Kansas City Center
Fri 09:13:35 PM 39.1781 -93.7386 269° West 356 410 36,000  Level Kansas City Center
Fri 09:14:35 PM 39.1772 -93.8603 270° West 354 407 36,000  Level Kansas City Center
Fri 09:15:36 PM 39.1767 -94.0031 270° West 357 411 36,000  Level Kansas City Center
Fri 09:16:39 PM 39.1750 -94.1256 269° West 357 411 36,000  Level Kansas City Center
Fri 09:17:40 PM 39.1739 -94.2678 269° West 356 410 36,000  Level Kansas City Center
Fri 09:18:43 PM 39.1722 -94.3892 269° West 355 409 36,000  Level Kansas City Center
Fri 09:19:43 PM 39.1706 -94.5100 269° West 352 405 36,000  Level Kansas City Center
Fri 09:20:44 PM 39.1681 -94.6497 269° West 350 403 36,000  Level Kansas City Center
Fri 09:21:45 PM 39.1661 -94.7708 269° West 354 407 36,000  Level Kansas City Center
Fri 09:22:49 PM 39.1650 -94.9108 269° West 350 403 36,000  Level Kansas City Center
Fri 09:23:50 PM 39.1628 -95.0289 269° West 345 397 36,000  Level Kansas City Center
Fri 09:24:51 PM 39.1600 -95.1619 268° West 350 403 36,000  Level Kansas City Center
Fri 09:25:53 PM 39.1581 -95.2958 269° West 349 402 36,000  Level Kansas City Center
Fri 09:26:55 PM 39.1553 -95.4231 268° West 356 410 36,000  Level Kansas City Center
Fri 09:27:56 PM 39.1533 -95.5414 269° West 359 413 36,000  Level Kansas City Center
Fri 09:28:56 PM 39.1500 -95.6858 268° West 361 415 36,000  Level Kansas City Center
Fri 09:29:56 PM 39.1472 -95.8094 268° West 361 415 36,000  Level Kansas City Center
Fri 09:31:00 PM 39.1447 -95.9344 269° West 364 419 36,000  Level Kansas City Center
Fri 09:32:01 PM 39.1408 -96.0817 268° West 369 425 36,000  Level Kansas City Center
Fri 09:33:01 PM 39.1375 -96.2086 268° West 370 426 36,000  Level Kansas City Center
Fri 09:34:04 PM 39.1328 -96.3608 268° West 379 436 36,000  Level Kansas City Center
Fri 09:35:03 PM 39.1292 -96.4914 268° West 382 440 36,000  Level Kansas City Center
Fri 09:36:07 PM 39.1261 -96.6242 268° West 385 443 36,000  Level Kansas City Center
Fri 09:37:07 PM 39.1206 -96.7775 267° West 385 443 36,000  Level Kansas City Center
Fri 09:38:07 PM 39.1164 -96.9092 268° West 385 443 36,000  Level Kansas City Center
Fri 09:39:11 PM 39.1111 -97.0647 268° West 388 447 36,000  Level Kansas City Center
Fri 09:40:13 PM 39.1056 -97.1983 267° West 390 449 36,000  Level Kansas City Center
Fri 09:41:14 PM 39.1008 -97.3325 267° West 391 450 36,000  Level Kansas City Center
Fri 09:42:14 PM 39.0947 -97.4864 267° West 387 445 36,000  Level Kansas City Center
Fri 09:43:16 PM 39.0900 -97.6203 267° West 390 449 36,000  Level Kansas City Center
Fri 09:44:16 PM 39.0833 -97.7778 267° West 394 453 36,000  Level Kansas City Center
Fri 09:45:18 PM 39.0781 -97.9161 267° West 392 451 36,000  Level Kansas City Center
Fri 09:46:19 PM 39.0717 -98.0564 267° West 391 450 36,000  Level Kansas City Center
Fri 09:47:21 PM 39.0656 -98.2008 267° West 399 459 36,000  Level Kansas City Center
Fri 09:48:21 PM 39.0594 -98.3431 267° West 400 460 36,000  Level Kansas City Center
Fri 09:49:22 PM 39.0528 -98.4847 267° West 399 459 36,000  Level Kansas City Center
Fri 09:50:25 PM 39.0464 -98.6278 267° West 401 461 36,000  Level Kansas City Center
Fri 09:51:27 PM 39.0397 -98.7714 267° West 403 464 36,000  Level Kansas City Center
Fri 09:52:27 PM 39.0314 -98.9156 266° West 405 466 36,000  Level Kansas City Center
Fri 09:53:30 PM 39.0231 -99.0869 266° West 404 465 36,000  Level Kansas City Center
Fri 09:54:30 PM 39.0161 -99.2314 267° West 406 467 36,000  Level Kansas City Center
Fri 09:55:32 PM 39.0089 -99.3772 266° West 409 471 36,000  Level Kansas City Center
Fri 09:56:32 PM 39.0014 -99.5242 266° West 412 474 36,000  Level Kansas City Center
Fri 09:57:33 PM 38.9917 -99.6675 265° West 414 476 36,000  Level Kansas City Center
Fri 09:58:34 PM 38.9825 -99.8342 266° West 418 481 36,000  Level Kansas City Center
Fri 09:59:36 PM 38.9736 -99.9767 265° West 419 482 36,000  Level Kansas City Center
Fri 10:00:38 PM 38.9628 -100.1419 265° West 418 481 36,000  Level Kansas City Center
Fri 10:01:39 PM 38.9544 -100.2847 266° West 418 481 36,000  Level Kansas City Center
Fri 10:02:40 PM 38.9458 -100.4283 266° West 421 484 36,000  Level Kansas City Center
Fri 10:03:40 PM 38.9342 -100.5956 265° West 422 486 36,000  Level Kansas City Center
Fri 10:04:42 PM 38.9250 -100.7369 265° West 420 483 36,000  Level Kansas City Center
Fri 10:05:43 PM 38.9136 -100.9036 265° West 419 482 36,000 -527 Level Kansas City Center
Fri 10:07:10 PM 38.8986 -101.1156 265° West 421 484 34,700 -811 Descending Denver Center
Fri 10:08:11 PM 38.8886 -101.2578 265° West 420 483 34,000 -341 Descending Denver Center
Fri 10:09:13 PM 38.8772 -101.4244 265° West 421 484 34,000  Level Denver Center
Fri 10:10:15 PM 38.8672 -101.5678 265° West 422 486 34,000  Level Denver Center
Fri 10:11:17 PM 38.8539 -101.7342 264° West 421 484 34,000  Level Denver Center
Fri 10:12:19 PM 38.8483 -101.8794 267° West 424 488 34,000  Level Denver Center
Fri 10:13:21 PM 38.8456 -102.0486 269° West 427 491 34,000  Level Denver Center
Fri 10:14:22 PM 38.8697 -102.1861 283° West 413 475 34,000 -537 Level Denver Center
Fri 10:15:24 PM 38.9131 -102.3433 290° West 418 481 32,900 -968 Descending Denver Center
Fri 10:16:26 PM 38.9514 -102.4778 290° West 420 483 32,000 -871 Descending Denver Center
Fri 10:17:28 PM 38.9903 -102.6142 290° West 423 487 31,100 -968 Descending Denver Center
Fri 10:18:30 PM 39.0328 -102.7697 289° West 423 487 30,000 -1,024 Descending Denver Center
Fri 10:19:31 PM 39.0717 -102.9108 290° West 418 481 29,000 -976 Descending Denver Center
Fri 10:20:33 PM 39.1100 -103.0519 289° West 418 481 28,000 -968 Descending Denver Center
Fri 10:21:35 PM 39.1489 -103.1900 290° West 413 475 27,000 -1,113 Descending Denver Center
Fri 10:22:37 PM 39.1919 -103.3533 289° West 406 467 25,700 -1,659 Descending Denver Center
Fri 10:23:38 PM 39.2286 -103.4861 290° West 397 457 23,600 -2,049 Descending Denver Center
Fri 10:24:40 PM 39.2625 -103.6144 289° West 384 442 21,500 -1,984 Descending Denver Center
Fri 10:25:42 PM 39.3011 -103.7369 292° West 375 432 19,500 -1,790 Descending Denver Center
Fri 10:26:44 PM 39.3547 -103.8475 302° West 365 420 17,800 -1,366 Descending Denver Center
Fri 10:27:45 PM 39.3992 -103.9669 296° West 340 391 16,700 -1,268 Descending Denver Center
Fri 10:28:47 PM 39.4025 -104.0783 272° West 311 358 15,200 -1,512 Descending Denver Center
Fri 10:29:48 PM 39.4081 -104.1944 274° West 302 348 13,600 -1,512 Descending Denver Center
Fri 10:30:50 PM 39.4117 -104.2972 273° West 290 334 12,100 -1,258 Descending Denver Center
Fri 10:31:52 PM 39.4164 -104.3978 274° West 283 326 11,000 -537 Descending Denver Center
Fri 10:32:53 PM 39.4214 -104.4914 274° West 247 284 11,000  Level Denver Center
Fri 10:33:55 PM 39.4514 -104.5686 297° West 243 280 11,000 -195 Level Denver Center
Fri 10:34:56 PM 39.4897 -104.6328 308° West 226 260 10,600 -780 Descending Denver Center
Fri 10:35:58 PM 39.5472 -104.6633 338° Northwest 207 238 9,400 -780 Descending Denver Center
Fri 10:36:59 PM 39.6031 -104.6633 360° North 201 231 9,000 -341 Descending Denver Center
Fri 10:38:01 PM 39.6581 -104.6625 North 199 229 8,700 -732 Descending Denver Center
Fri 10:39:02 PM 39.7206 -104.6619 360° North 207 238 7,500 -1,073 Descending Denver Center
Fri 10:40:04 PM 39.7758 -104.6614 360° North 201 231 6,500 -976 Descending Denver Center
Fri 10:41:05 PM 39.8286 -104.6611 360° North 193 222 5,500 -984 Descending Denver Center

Login

Don't have an account? Register now (free) for customized features, flight alerts, and more!